Kilkenny, Ireland

12:50 PM IST on July 11, 2014 (GMT +0100)
Kilkenny (IKILKENN2) Elev 160 ft | 52.66 °N, 7.25 °W | Change Station

Current weather conditions updated 8 minutes ago

Mostly Cloudy
Mostly Cloudy
65.5 °F
Feels Like 65.5 °F
N
0.0
Wind Variable Wind from NW
Gusts 10.0 mph

Today is forecast to be nearly the same temperature as yesterday. Showers possible.

Today
High -- | Low -- °F
--% Chance of Precip.
Yesterday
High -- | Low -- °F
Precip. -- in
5:18 AM 9:49 PM
Waxing Gibbous, 99% visible
Pressure 30.12 in
Visibility 6.2 miles
Clouds Few 2400 ft
Mostly Cloudy 3200 ft
Dew Point 57 °F
Humidity 77%
Rainfall 0.00 in
Snow Depth Not available.
UV 5 out of 12
Pollen Not available.
Air Quality Not available.
Flu Activity Not available.
METAR EIWF 111130Z 25007KT 210V290 9999 FEW024 BKN032 18/14 Q1020

More Conditions Fewer Conditions

Pressure 30.12 in
Visibility 6.2 miles
Clouds Few 2400 ft
Mostly Cloudy 3200 ft
Dew Point 57 °F
Humidity 77%
Rainfall 0.00 in
Snow Depth Not available.
UV 5 out of 12
Pollen Not available.
Air Quality Not available.
Flu Activity Not available.
METAR EIWF 111130Z 25007KT 210V290 9999 FEW024 BKN032 18/14 Q1020

More Conditions Fewer Conditions

10-Day Weather Forecast

Almanac

Astronomy

Jul. 11, 2014 Rise Set
Actual Time 5:18 AM IST 9:49 PM IST
Civil Twilight 4:30 AM IST 10:37 PM IST
Nautical Twilight 3:16 AM IST 11:51 PM IST
Astronomical Twilight 2:06 AM IST 1:02 AM IST
Moon 8:36 PM IST 4:25 AM IST
Length of Visible Light 18h 06m
Length of Day
16h 31m
Tomorrow will be 2m 2s shorter.
Waxing Gibbous, 99% of the Moon is Illuminated
Today
Waxing Gibbous
Jul 12
Full
Jul 18
Last Quarter
Jul 26
New
Aug 3
First Quarter

Yesterday's Extremes

Country Highs Country Lows

Community

WunderPhotos

Upload Photos

1,732,429 photos uploaded!

WunderBlogs® & News

Nearby

Snow Depth

Not available.

Earthquake Activity

City Distance Mag. Time & Date
No recent earthquake activity has been reported nearby.
Minimum magnitude displayed is 2.5.

Coastal Water Temperatures

Place Temperature
No Stations Reporting

Nearby Weather Stations

Station Location Temp. Dew Point Humidity Wind Precip. Elev Updated Type
Kilkenny, Kilkenny City 65.5 °F 57 °F 77% NW  at  0.0 mph 0.00 in / hr 160 ft 12:42 PM IST Normal
Callan Town, Callan 66.3 °F 59 °F 78% SSE  at  6.0 mph 0.00 in / hr 250 ft 12:50 PM IST Rapid Fire
Castlecomer, Kilkenny 62.8 °F 58 °F 85% SW  at  3.0 mph 0.00 in / hr 827 ft 12:44 PM IST Normal
Durrow 65.8 °F 58 °F 76% West  at  7.0 mph 0.00 in / hr 292 ft 12:50 PM IST Rapid Fire
LIT Tipperary, Thurles 63.5 °F 59 °F 85% North  at  0.0 mph 0.00 in / hr 354 ft 12:39 PM IST Normal
Ard Erin, Mountrath 66.2 °F 59 °F 77% West  at  0.0 mph 0.00 in / hr 348 ft 12:50 PM IST Normal

Show More Stations Show Fewer Stations